.
WxDataArchive / Data Records for 2007-01-18
2007-01-17 January 2007 2007-01-19

Data Records for Thursday, 18 January 2007

Time	Temp	Chill	HIndex	Humid	Dewpt	 Wind 	HiWind	WindDir	Rain 	Barom 
-----	----	-----	------	-----	-----	------	------	-------	-----	----- 
00:00	22.2	22.2	22.2	79	16.7	0	1	135	0.00	30.413 
00:05	22.4	22.4	22.4	79	16.9	0	2	135	0.00	30.408 
00:10	22.4	22.4	22.4	79	16.9	0	1	135	0.00	30.410 
00:15	22.4	22.4	22.4	79	16.9	0	2	135	0.00	30.411 
00:20	22.4	22.4	22.4	79	16.9	0	1	135	0.00	30.413 
00:25	22.4	22.4	22.4	79	16.9	0	2	135	0.00	30.408 
00:30	22.5	22.5	22.5	78	16.7	1	3	112	0.00	30.405 
00:35	22.7	22.7	22.7	78	16.9	1	2	135	0.00	30.404 
00:40	22.7	22.7	22.7	78	16.9	1	4	135	0.00	30.394 
00:45	22.7	22.7	22.7	78	16.9	0	2	112	0.00	30.389 
00:50	22.7	22.7	22.7	78	16.9	0	2	112	0.00	30.389 
00:55	22.5	22.5	22.5	78	16.7	0	1	135	0.00	30.392 
01:00	22.5	22.5	22.5	78	16.7	0	0	---	0.00	30.390 
01:05	22.2	22.2	22.2	78	16.4	0	0	---	0.00	30.387 
01:10	22.1	22.1	22.1	78	16.3	0	0	---	0.00	30.383 
01:15	21.8	21.8	21.8	78	16.0	0	0	---	0.00	30.379 
01:20	21.6	21.6	21.6	79	16.1	0	0	---	0.00	30.376 
01:25	21.3	21.3	21.3	80	16.1	0	1	135	0.00	30.378 
01:30	21.4	21.4	21.4	81	16.5	0	1	135	0.00	30.376 
01:35	21.4	21.4	21.4	80	16.2	0	0	---	0.00	30.375 
01:40	21.4	21.4	21.4	80	16.2	0	0	---	0.00	30.371 
01:45	21.4	21.4	21.4	80	16.2	0	0	---	0.00	30.366 
01:50	21.3	21.3	21.3	81	16.4	0	0	---	0.00	30.361 
01:55	21.1	21.1	21.1	81	16.2	0	1	135	0.00	30.359 
02:00	21.0	21.0	21.0	81	16.1	0	0	---	0.00	30.360 
02:05	21.1	21.1	21.1	81	16.2	0	0	---	0.00	30.359 
02:10	21.0	21.0	21.0	81	16.1	0	0	---	0.00	30.359 
02:15	21.0	21.0	21.0	81	16.1	0	0	---	0.00	30.357 
02:20	20.8	20.8	20.8	81	15.9	0	0	---	0.00	30.352 
02:25	20.8	20.8	20.8	82	16.2	0	0	---	0.00	30.358 
02:30	21.0	21.0	21.0	82	16.4	0	0	---	0.00	30.357 
02:35	21.1	21.1	21.1	83	16.8	0	0	---	0.00	30.355 
02:40	21.3	21.3	21.3	82	16.7	0	1	135	0.00	30.357 
02:45	21.6	21.6	21.6	82	17.0	0	1	135	0.00	30.356 
02:50	21.9	21.9	21.9	82	17.3	0	1	135	0.00	30.356 
02:55	22.2	22.2	22.2	81	17.3	0	1	135	0.00	30.351 
03:00	22.5	22.5	22.5	80	17.3	0	1	135	0.00	30.347 
03:05	22.9	22.9	22.9	80	17.7	0	1	135	0.00	30.348 
03:10	23.2	23.2	23.2	80	18.0	0	1	135	0.00	30.339 
03:15	23.3	23.3	23.3	80	18.1	0	2	135	0.00	30.333 
03:20	23.5	23.5	23.5	79	18.0	0	1	135	0.00	30.327 
03:25	23.6	23.6	23.6	79	18.1	0	2	158	0.00	30.324 
03:30	23.8	23.8	23.8	78	18.0	0	2	135	0.00	30.323 
03:35	23.9	23.9	23.9	77	17.8	0	2	135	0.00	30.323 
03:40	24.1	24.1	24.1	77	18.0	0	2	112	0.00	30.319 
03:45	24.2	24.2	24.2	77	18.1	0	2	112	0.00	30.321 
03:50	24.4	24.4	24.4	77	18.2	1	3	112	0.00	30.322 
03:55	24.4	24.4	24.4	77	18.2	1	2	112	0.00	30.317 
04:00	24.5	24.5	24.5	76	18.0	1	3	112	0.00	30.308 
04:05	24.5	24.5	24.5	76	18.0	1	3	135	0.00	30.292 
04:10	24.7	24.7	24.7	77	18.5	1	2	135	0.00	30.296 
04:15	24.7	24.7	24.7	77	18.5	0	2	135	0.00	30.296 
04:20	24.8	24.8	24.8	76	18.3	0	1	135	0.00	30.299 
04:25	25.0	25.0	25.0	76	18.5	0	3	112	0.00	30.297 
04:30	25.1	25.1	25.1	75	18.3	0	2	112	0.00	30.296 
04:35	25.3	25.3	25.3	75	18.5	0	3	135	0.00	30.296 
04:40	25.4	25.4	25.4	74	18.3	0	1	135	0.00	30.296 
04:45	25.4	25.4	25.4	74	18.3	0	1	135	0.00	30.294 
04:50	25.6	25.6	25.6	73	18.2	0	2	135	0.00	30.292 
04:55	25.6	25.6	25.6	74	18.5	0	2	112	0.00	30.292 
05:00	25.7	25.7	25.7	74	18.6	0	2	112	0.00	30.292 
05:05	25.7	25.7	25.7	73	18.3	1	2	112	0.00	30.292 
05:10	25.8	25.8	25.8	73	18.4	1	3	112	0.00	30.292 
05:15	25.8	25.8	25.8	73	18.4	1	3	90	0.00	30.286 
05:20	26.0	26.0	26.0	73	18.6	0	2	90	0.00	30.282 
05:25	26.0	26.0	26.0	73	18.6	0	2	68	0.00	30.281 
05:30	26.0	26.0	26.0	74	18.9	0	1	68	0.00	30.279 
05:35	26.0	26.0	26.0	74	18.9	0	2	270	0.00	30.277 
05:40	26.0	26.0	26.0	73	18.6	0	3	112	0.00	30.275 
05:45	26.0	26.0	26.0	73	18.6	1	2	135	0.00	30.274 
05:50	26.1	26.1	26.1	74	19.0	0	3	338	0.00	30.267 
05:55	26.1	26.1	26.1	73	18.7	1	4	270	0.00	30.270 
06:00	26.3	26.3	26.3	74	19.2	0	2	135	0.00	30.263 
06:05	26.3	26.3	26.3	74	19.2	0	2	90	0.00	30.263 
06:10	26.3	26.3	26.3	73	18.8	1	3	90	0.00	30.260 
06:15	26.4	26.4	26.4	73	18.9	1	3	112	0.00	30.260 
06:20	26.4	26.4	26.4	73	18.9	1	3	248	0.00	30.256 
06:25	26.4	26.4	26.4	73	18.9	1	3	248	0.00	30.253 
06:30	26.4	26.4	26.4	74	19.3	0	3	90	0.00	30.252 
06:35	26.6	26.6	26.6	74	19.5	0	1	90	0.00	30.249 
06:40	26.6	26.6	26.6	74	19.5	0	2	90	0.00	30.249 
06:45	26.6	26.6	26.6	74	19.5	0	1	90	0.00	30.248 
06:50	26.7	26.7	26.7	74	19.5	0	3	90	0.00	30.252 
06:55	26.7	26.7	26.7	74	19.5	0	3	248	0.00	30.247 
07:00	26.7	26.7	26.7	73	19.2	0	2	248	0.00	30.246 
07:05	26.9	26.9	26.9	73	19.4	0	2	248	0.00	30.250 
07:10	26.9	26.9	26.9	73	19.4	0	2	248	0.00	30.248 
07:15	27.0	27.0	27.0	74	19.8	0	1	248	0.00	30.247 
07:20	27.0	27.0	27.0	74	19.8	0	1	248	0.00	30.249 
07:25	27.2	27.2	27.2	74	20.0	0	1	248	0.00	30.250 
07:30	27.2	27.2	27.2	74	20.0	0	2	292	0.00	30.250 
07:35	27.2	27.2	27.2	73	19.7	0	2	292	0.00	30.249 
07:40	27.3	27.3	27.3	73	19.8	0	2	292	0.00	30.247 
07:45	27.5	27.5	27.5	73	20.0	0	2	315	0.00	30.243 
07:50	27.6	27.6	27.6	73	20.1	0	1	315	0.00	30.242 
07:55	27.6	27.6	27.6	73	20.1	0	1	315	0.00	30.245 
08:00	27.8	27.8	27.8	73	20.3	0	2	315	0.00	30.242 
08:05	27.8	27.8	27.8	73	20.3	0	2	0	0.00	30.241 
08:10	27.9	27.9	27.9	73	20.4	0	1	0	0.00	30.239 
08:15	27.9	27.9	27.9	73	20.4	0	2	22	0.00	30.242 
08:20	28.1	28.1	28.1	73	20.6	0	2	22	0.00	30.239 
08:25	28.1	28.1	28.1	73	20.6	0	2	22	0.00	30.240 
08:30	28.2	28.2	28.2	73	20.7	0	2	22	0.00	30.235 
08:35	28.4	28.4	28.4	73	20.9	0	2	22	0.00	30.235 
08:40	28.4	28.4	28.4	73	20.9	0	2	0	0.00	30.234 
08:45	28.5	28.5	28.5	73	21.0	0	3	68	0.00	30.232 
08:50	28.7	28.7	28.7	73	21.2	1	3	292	0.00	30.233 
08:55	28.8	28.8	28.8	73	21.3	1	3	0	0.00	30.230 
09:00	29.0	29.0	29.0	72	21.1	0	3	292	0.00	30.224 
09:05	29.1	29.1	29.1	72	21.2	1	4	292	0.00	30.222 
09:10	29.3	29.3	29.3	72	21.4	1	5	270	0.00	30.217 
09:15	29.4	29.4	29.4	71	21.2	1	4	248	0.00	30.219 
09:20	29.7	29.7	29.7	71	21.5	2	3	248	0.00	30.219 
09:25	29.8	29.8	29.8	71	21.6	1	4	248	0.00	30.217 
09:30	30.1	30.1	30.1	71	21.9	1	6	248	0.00	30.215 
09:35	30.3	30.3	30.3	70	21.7	2	6	248	0.00	30.215 
09:40	30.4	30.4	30.4	71	22.1	2	4	248	0.00	30.212 
09:45	30.6	30.6	30.6	70	22.0	1	3	270	0.00	30.204 
09:50	30.7	30.7	30.7	70	22.1	1	4	270	0.00	30.198 
09:55	31.0	31.0	31.0	70	22.4	1	6	248	0.00	30.198 
10:00	31.2	31.2	31.2	70	22.6	1	6	248	0.00	30.195 
10:05	31.5	31.5	31.5	69	22.5	2	7	0	0.00	30.194 
10:10	31.5	31.5	31.5	69	22.5	2	9	270	0.00	30.193 
10:15	31.5	31.5	31.5	69	22.5	2	6	248	0.00	30.196 
10:20	31.6	31.6	31.6	69	22.6	2	6	248	0.00	30.197 
10:25	31.8	31.8	31.8	69	22.8	2	7	248	0.00	30.192 
10:30	32.1	32.1	32.1	68	22.7	3	9	248	0.00	30.190 
10:35	32.2	32.2	32.2	68	22.8	3	7	270	0.00	30.185 
10:40	32.2	28.3	32.2	67	22.5	4	9	248	0.00	30.181 
10:45	32.4	32.4	32.4	68	23.0	2	8	270	0.00	30.182 
10:50	32.5	32.5	32.5	68	23.1	2	5	248	0.00	30.182 
10:55	32.8	32.8	32.8	67	23.1	2	6	270	0.00	30.181 
11:00	33.1	33.1	33.1	67	23.4	2	6	248	0.00	30.180 
11:05	33.2	33.2	33.2	67	23.4	3	7	248	0.00	30.180 
11:10	33.5	33.5	33.5	66	23.4	3	7	248	0.00	30.180 
11:15	33.7	33.7	33.7	66	23.6	2	7	270	0.00	30.182 
11:20	33.8	33.8	33.8	65	23.3	3	9	248	0.00	30.182 
11:25	33.8	33.8	33.8	66	23.7	2	6	248	0.00	30.178 
11:30	34.0	34.0	34.0	65	23.5	3	7	248	0.00	30.172 
11:35	34.1	34.1	34.1	66	23.9	2	9	248	0.00	30.175 
11:40	34.1	30.5	34.1	65	23.6	4	12	270	0.00	30.175 
11:45	34.1	30.5	34.1	66	23.9	4	10	270	0.00	30.172 
11:50	34.0	30.4	34.0	68	24.6	4	10	248	0.00	30.166 
11:55	33.5	28.0	33.5	72	25.5	6	12	248	0.00	30.163 
12:00	33.1	28.4	33.1	73	25.4	5	12	248	0.00	30.160 
12:05	33.2	29.5	33.2	74	25.8	4	10	270	0.00	30.154 
12:10	33.5	33.5	33.5	75	26.4	3	7	248	0.00	30.149 
12:15	33.8	29.2	33.8	73	26.1	5	13	248	0.00	30.148 
12:20	34.1	34.1	34.1	73	26.4	3	10	248	0.00	30.142 
12:25	34.4	34.4	34.4	73	26.7	3	7	248	0.00	30.134 
12:30	34.9	31.4	34.9	71	26.5	4	10	248	0.00	30.133 
12:35	35.2	31.8	35.2	70	26.4	4	10	248	0.00	30.131 
12:40	35.2	31.8	35.2	69	26.1	4	13	270	0.00	30.128 
12:45	35.0	30.6	35.0	69	25.9	5	9	270	0.00	30.128 
12:50	34.7	29.4	34.7	69	25.6	6	13	270	0.00	30.129 
12:55	34.4	29.9	34.4	71	26.0	5	12	248	0.00	30.131 
13:00	34.3	29.8	34.3	71	25.9	5	11	270	0.00	30.133 
13:05	34.1	29.5	34.1	72	26.0	5	11	270	0.00	30.131 
13:10	34.0	29.4	34.0	73	26.3	5	12	270	0.00	30.121 
13:15	34.0	34.0	34.0	75	26.9	3	8	248	0.00	30.125 
13:20	34.0	30.4	34.0	74	26.6	4	12	248	0.00	30.121 
13:25	33.8	30.2	33.8	76	27.1	4	10	248	0.00	30.115 
13:30	33.7	30.0	33.7	78	27.6	4	9	248	0.00	30.110 
13:35	33.8	30.2	33.8	78	27.7	4	11	248	0.00	30.106 
13:40	33.8	30.2	33.8	78	27.7	4	11	270	0.00	30.102 
13:45	34.1	34.1	34.1	78	28.0	3	7	248	0.00	30.101 
13:50	34.3	34.3	34.3	80	28.8	2	7	248	0.00	30.100 
13:55	34.3	34.3	34.3	78	28.2	3	9	248	0.00	30.095 
14:00	34.1	30.5	34.1	78	28.0	4	10	248	0.00	30.087 
14:05	34.3	30.7	34.3	77	27.9	4	9	248	0.00	30.080 
14:10	34.4	29.9	34.4	77	27.9	5	12	248	0.00	30.078 
14:15	34.4	34.4	34.4	77	27.9	3	6	248	0.00	30.078 
14:20	34.6	31.1	34.6	77	28.1	4	10	248	0.00	30.068 
14:25	34.6	34.6	34.6	77	28.1	3	7	248	0.00	30.068 
14:30	34.6	31.1	34.6	76	27.8	4	17	248	0.00	30.067 
14:35	34.4	30.8	34.4	76	27.6	4	12	248	0.00	30.067 
14:40	34.4	30.8	34.4	75	27.3	4	9	248	0.00	30.066 
14:45	34.6	31.1	34.6	74	27.2	4	10	248	0.00	30.065 
14:50	34.7	31.2	34.7	72	26.6	4	11	248	0.00	30.064 
14:55	34.7	29.4	34.7	70	25.9	6	13	270	0.00	30.059 
15:00	35.0	35.0	35.0	72	26.9	3	9	248	0.00	30.057 
15:05	35.0	31.5	35.0	70	26.2	4	10	248	0.00	30.057 
15:10	35.0	30.6	35.0	70	26.2	5	10	270	0.00	30.049 
15:15	35.2	35.2	35.2	69	26.1	3	9	270	0.00	30.048 
15:20	35.3	31.9	35.3	68	25.8	4	10	248	0.00	30.049 
15:25	35.3	30.2	35.3	66	25.1	6	14	270	0.00	30.048 
15:30	35.3	31.9	35.3	66	25.1	4	11	248	0.00	30.048 
15:35	35.3	35.3	35.3	65	24.7	3	6	270	0.00	30.043 
15:40	35.2	30.0	35.2	66	25.0	6	12	248	0.00	30.042 
15:45	35.2	31.8	35.2	66	25.0	4	7	248	0.00	30.039 
15:50	35.0	30.6	35.0	66	24.8	5	12	248	0.00	30.035 
15:55	35.0	31.5	35.0	67	25.2	4	11	270	0.00	30.036 
16:00	34.9	30.5	34.9	67	25.1	5	12	248	0.00	30.033 
16:05	34.9	31.4	34.9	68	25.4	4	10	270	0.00	30.035 
16:10	34.9	31.4	34.9	69	25.8	4	11	248	0.00	30.035 
16:15	34.7	31.2	34.7	69	25.6	4	9	248	0.00	30.037 
16:20	34.7	31.2	34.7	70	25.9	4	8	248	0.00	30.044 
16:25	34.6	30.1	34.6	71	26.2	5	11	248	0.00	30.035 
16:30	34.4	30.8	34.4	73	26.7	4	10	270	0.00	30.033 
16:35	34.3	30.7	34.3	73	26.6	4	12	248	0.00	30.032 
16:40	34.1	30.5	34.1	74	26.7	4	12	248	0.00	30.031 
16:45	34.0	30.4	34.0	75	26.9	4	11	248	0.00	30.021 
16:50	34.0	30.4	34.0	76	27.2	4	7	248	0.00	30.026 
16:55	33.8	33.8	33.8	77	27.4	3	11	248	0.00	30.020 
17:00	33.8	33.8	33.8	77	27.4	3	9	248	0.00	30.018 
17:05	33.7	33.7	33.7	79	27.9	3	6	248	0.00	30.017 
17:10	33.5	33.5	33.5	80	28.0	3	9	248	0.00	30.018 
17:15	33.4	29.7	33.4	80	27.9	4	10	248	0.00	30.017 
17:20	33.4	29.7	33.4	81	28.2	4	9	270	0.00	30.018 
17:25	33.2	33.2	33.2	82	28.3	3	6	270	0.00	30.019 
17:30	33.1	33.1	33.1	82	28.2	2	8	248	0.00	30.019 
17:35	33.1	33.1	33.1	83	28.5	2	6	248	0.00	30.020 
17:40	33.1	33.1	33.1	83	28.5	1	6	248	0.00	30.019 
17:45	33.1	33.1	33.1	84	28.8	2	10	248	0.00	30.021 
17:50	32.9	29.1	32.9	85	28.9	4	12	270	0.00	30.023 
17:55	32.8	28.0	32.8	86	29.1	5	12	270	0.00	30.021 
18:00	32.7	28.9	32.7	87	29.3	4	9	270	0.00	30.020 
18:05	32.5	32.5	32.5	88	29.3	3	8	248	0.00	30.018 
18:10	32.5	32.5	32.5	88	29.3	3	6	248	0.00	30.021 
18:15	32.4	32.4	32.4	89	29.5	3	7	270	0.00	30.020 
18:20	32.4	27.5	32.4	88	29.3	5	10	270	0.00	30.019 
18:25	32.2	32.2	32.2	89	29.3	2	7	248	0.00	30.019 
18:30	32.2	28.3	32.2	89	29.3	4	11	270	0.00	30.020 
18:35	32.1	28.2	32.1	89	29.2	4	10	270	0.00	30.026 
18:40	32.1	28.2	32.1	89	29.2	4	12	270	0.00	30.031 
18:45	31.9	28.0	31.9	88	28.8	4	12	270	0.00	30.031 
18:50	31.9	26.1	31.9	87	28.5	6	12	270	0.00	30.029 
18:55	31.9	26.1	31.9	85	27.9	6	16	270	0.00	30.027 
19:00	31.9	27.0	31.9	85	27.9	5	11	270	0.00	30.026 
19:05	31.9	27.0	31.9	84	27.6	5	13	270	0.00	30.019 
19:10	32.1	26.3	32.1	83	27.5	6	12	270	0.00	30.017 
19:15	31.9	28.0	31.9	83	27.3	4	11	270	0.00	30.019 
19:20	31.9	28.0	31.9	83	27.3	4	10	270	0.00	30.019 
19:25	31.8	31.8	31.8	84	27.5	3	9	270	0.00	30.019 
19:30	31.6	27.6	31.6	84	27.3	4	9	270	0.00	30.031 
19:35	31.6	31.6	31.6	84	27.3	3	10	270	0.00	30.034 
19:40	31.5	31.5	31.5	84	27.2	3	9	248	0.00	30.038 
19:45	31.5	27.5	31.5	84	27.2	4	14	270	0.00	30.036 
19:50	31.5	26.5	31.5	83	26.9	5	11	270	0.00	30.036 
19:55	31.5	26.5	31.5	83	26.9	5	14	270	0.00	30.038 
20:00	31.5	31.5	31.5	83	26.9	3	11	270	0.00	30.035 
20:05	31.3	27.3	31.3	83	26.7	4	10	270	0.00	30.033 
20:10	31.3	27.3	31.3	83	26.7	4	11	270	0.00	30.033 
20:15	31.3	27.3	31.3	82	26.5	4	11	248	0.00	30.032 
20:20	31.5	26.5	31.5	81	26.4	5	12	270	0.00	30.032 
20:25	31.5	26.5	31.5	80	26.1	5	13	270	0.00	30.031 
20:30	31.6	27.6	31.6	81	26.5	4	10	270	0.00	30.031 
20:35	31.5	31.5	31.5	81	26.4	3	9	270	0.00	30.030 
20:40	31.3	26.3	31.3	81	26.2	5	13	270	0.00	30.029 
20:45	31.3	31.3	31.3	82	26.5	3	7	270	0.00	30.028 
20:50	31.2	31.2	31.2	83	26.6	3	10	270	0.00	30.029 
20:55	31.0	26.9	31.0	84	26.7	4	13	270	0.00	30.021 
21:00	30.9	30.9	30.9	85	26.9	3	9	270	0.00	30.020 
21:05	30.7	30.7	30.7	86	27.0	2	6	270	0.00	30.017 
21:10	30.6	30.6	30.6	86	26.9	3	10	270	0.00	30.016 
21:15	30.3	30.3	30.3	86	26.6	3	6	270	0.00	30.017 
21:20	30.1	30.1	30.1	87	26.7	2	5	270	0.00	30.016 
21:25	30.1	30.1	30.1	87	26.7	2	5	270	0.00	30.016 
21:30	30.1	30.1	30.1	87	26.7	3	9	270	0.00	30.011 
21:35	30.1	30.1	30.1	87	26.7	2	5	270	0.00	30.008 
21:40	30.1	30.1	30.1	86	26.4	3	9	270	0.00	30.005 
21:45	30.1	30.1	30.1	85	26.1	3	8	270	0.00	30.002 
21:50	30.1	30.1	30.1	85	26.1	2	6	270	0.00	30.000 
21:55	30.1	30.1	30.1	86	26.4	2	5	248	0.00	30.000 
22:00	30.1	30.1	30.1	86	26.4	3	9	248	0.00	30.000 
22:05	30.1	30.1	30.1	87	26.7	2	6	270	0.00	29.993 
22:10	30.1	30.1	30.1	87	26.7	3	7	248	0.00	29.992 
22:15	30.1	30.1	30.1	87	26.7	3	6	248	0.00	29.991 
22:20	30.1	30.1	30.1	87	26.7	3	6	248	0.00	29.988 
22:25	30.3	30.3	30.3	87	26.9	3	7	248	0.00	29.986 
22:30	30.3	30.3	30.3	87	26.9	3	9	270	0.00	29.984 
22:35	30.4	26.2	30.4	87	27.0	4	10	248	0.00	29.984 
22:40	30.4	30.4	30.4	86	26.7	3	11	248	0.00	29.984 
22:45	30.6	30.6	30.6	86	26.9	3	7	248	0.00	29.980 
22:50	30.6	26.5	30.6	86	26.9	4	11	248	0.00	29.981 
22:55	30.6	26.5	30.6	86	26.9	4	11	248	0.00	29.981 
23:00	30.6	26.5	30.6	86	26.9	4	9	270	0.00	29.981 
23:05	30.6	30.6	30.6	86	26.9	3	9	248	0.00	29.979 
23:10	30.6	30.6	30.6	86	26.9	3	9	248	0.00	29.980 
23:15	30.7	30.7	30.7	86	27.0	3	7	248	0.00	29.981 
23:20	30.7	26.6	30.7	86	27.0	4	10	270	0.00	29.980 
23:25	30.7	26.6	30.7	86	27.0	4	12	270	0.00	29.978 
23:30	30.9	30.9	30.9	85	26.9	3	10	248	0.00	29.974 
23:35	30.9	26.8	30.9	85	26.9	4	11	248	0.00	29.982 
23:40	30.9	30.9	30.9	85	26.9	3	7	270	0.00	29.980 
23:45	30.9	25.8	30.9	85	26.9	5	11	248	0.00	29.979 
23:50	31.0	26.9	31.0	85	27.0	4	9	270	0.00	29.980 
23:55	31.0	26.9	31.0	85	27.0	4	14	270	0.00	29.980 

CoCoRaHS
IN-AL-39
A2 Web Hosting
Creative Commons License
GoDaddy
Look for:

loaded 2017-12-11 06:45:30 • last modified 2010-11-18 10:43:29
Privacy PolicyDisclaimer
• wx.awcolley.com is powered by PmWiki v.2002016 •
• all content (unless otherwise noted) © 2017 A W Colley